createdAt,value
2022-11-29T00:01:42.771Z,8.56
2022-11-29T00:04:15.051Z,8.36
2022-11-29T00:06:41.986Z,8.41
2022-11-29T00:09:12.448Z,8.27
2022-11-29T00:11:59.702Z,8.34
2022-11-29T00:14:31.203Z,7.72
2022-11-29T00:17:02.585Z,7.55
2022-11-29T00:19:34.621Z,7.58
2022-11-29T00:22:03.405Z,7.84
2022-11-29T00:24:32.351Z,7.81
2022-11-29T00:27:02.129Z,7.54
2022-11-29T00:29:30.320Z,7.65
2022-11-29T00:31:57.515Z,7.82
2022-11-29T00:34:27.275Z,7.97
2022-11-29T00:36:54.227Z,8.09
2022-11-29T00:39:24.482Z,7.81
2022-11-29T00:41:54.900Z,7.56
2022-11-29T00:44:24.037Z,7.44
2022-11-29T00:46:51.235Z,7.84
2022-11-29T00:49:23.273Z,7.73
2022-11-29T00:51:50.695Z,7.74
2022-11-29T00:54:20.244Z,7.59
2022-11-29T00:56:47.404Z,7.56
2022-11-29T00:59:14.502Z,7.79
2022-11-29T01:01:41.615Z,7.84
2022-11-29T01:04:08.579Z,7.80
2022-11-29T01:06:35.702Z,7.77
2022-11-29T01:09:03.055Z,7.44
2022-11-29T01:11:32.556Z,7.25
2022-11-29T01:14:04.250Z,7.22
2022-11-29T01:16:34.731Z,7.41
2022-11-29T01:19:02.653Z,7.37
2022-11-29T01:21:29.923Z,7.00
2022-11-29T01:23:57.510Z,7.15
2022-11-29T01:26:28.746Z,7.51
2022-11-29T01:28:58.563Z,7.69
2022-11-29T01:31:33.371Z,7.56
2022-11-29T01:34:03.543Z,7.76
2022-11-29T01:36:35.670Z,7.75
2022-11-29T01:39:06.801Z,7.53
2022-11-29T01:41:37.080Z,7.53
2022-11-29T01:44:12.801Z,7.37
2022-11-29T01:46:46.024Z,6.99
2022-11-29T01:49:25.047Z,7.09
2022-11-29T01:52:05.846Z,7.07
2022-11-29T01:54:40.317Z,6.80
2022-11-29T01:57:11.699Z,6.88
2022-11-29T01:59:51.170Z,6.83
2022-11-29T02:02:27.665Z,6.99
2022-11-29T02:04:55.121Z,7.02
2022-11-29T02:07:22.524Z,6.87
2022-11-29T02:09:52.482Z,6.93
2022-11-29T02:12:45.327Z,7.18
2022-11-29T02:15:43.446Z,6.80
2022-11-29T02:18:15.911Z,6.43
2022-11-29T02:21:10.967Z,6.98
2022-11-29T02:24:08.474Z,6.96
2022-11-29T02:27:07.548Z,6.77
2022-11-29T02:30:02.711Z,6.83
2022-11-29T02:32:56.744Z,6.92
2022-11-29T02:35:44.969Z,6.78
2022-11-29T02:38:51.254Z,6.97
2022-11-29T02:41:46.848Z,7.01
2022-11-29T02:44:49.399Z,6.97
2022-11-29T02:47:35.337Z,7.10
2022-11-29T02:50:25.113Z,7.35
2022-11-29T02:53:36.140Z,7.17
2022-11-29T02:56:31.495Z,7.33
2022-11-29T02:59:54.014Z,7.33
2022-11-29T03:03:02.407Z,7.25
2022-11-29T03:05:50.990Z,7.17
2022-11-29T03:08:46.921Z,6.82
2022-11-29T03:11:52.032Z,7.11
2022-11-29T03:14:30.099Z,7.31
2022-11-29T03:17:49.329Z,7.38
2022-11-29T03:20:45.814Z,7.28
2022-11-29T03:23:38.204Z,7.21
2022-11-29T03:26:15.212Z,7.46
2022-11-29T03:29:23.948Z,7.29
2022-11-29T03:32:06.921Z,7.48
2022-11-29T03:35:30.362Z,7.07
2022-11-29T03:38:09.835Z,7.08
2022-11-29T03:40:54.531Z,7.11
2022-11-29T03:44:09.763Z,7.27
2022-11-29T03:47:08.975Z,7.19
2022-11-29T03:49:40.012Z,7.26
2022-11-29T03:52:21.204Z,6.71
2022-11-29T03:55:45.376Z,6.79
2022-11-29T03:58:18.368Z,6.93
2022-11-29T04:00:48.270Z,6.66
2022-11-29T04:04:15.855Z,6.83
2022-11-29T04:07:24.293Z,6.94
2022-11-29T04:10:11.621Z,7.15
2022-11-29T04:13:22.065Z,7.34
2022-11-29T04:15:51.705Z,7.31
2022-11-29T04:18:54.802Z,7.12
2022-11-29T04:21:31.169Z,7.00
2022-11-29T04:24:30.713Z,7.06
2022-11-29T04:27:51.856Z,6.87
2022-11-29T04:30:24.127Z,6.79
2022-11-29T04:33:31.981Z,6.85
2022-11-29T04:36:44.935Z,6.99
2022-11-29T04:39:17.125Z,6.90
2022-11-29T04:42:09.558Z,6.63
2022-11-29T04:44:48.500Z,6.72
2022-11-29T04:47:33.750Z,6.73
2022-11-29T04:50:07.078Z,7.07
2022-11-29T04:53:26.176Z,6.99
2022-11-29T04:56:26.110Z,7.03
2022-11-29T04:59:39.389Z,7.23
2022-11-29T05:02:12.085Z,7.46
2022-11-29T05:05:06.916Z,7.30
2022-11-29T05:08:06.145Z,7.34
2022-11-29T05:11:14.684Z,7.38
2022-11-29T05:13:59.038Z,7.29
2022-11-29T05:17:27.546Z,7.25
2022-11-29T05:20:21.736Z,7.35
2022-11-29T05:23:06.629Z,7.38
2022-11-29T05:25:48.766Z,7.38
2022-11-29T05:29:02.283Z,7.29
2022-11-29T05:31:53.514Z,6.94
2022-11-29T05:35:04.009Z,7.13
2022-11-29T05:38:16.505Z,7.18
2022-11-29T05:41:23.929Z,7.28
2022-11-29T05:43:59.609Z,7.16
2022-11-29T05:46:32.375Z,7.14
2022-11-29T05:49:17.243Z,7.10
2022-11-29T05:52:06.288Z,6.36
2022-11-29T05:54:45.218Z,6.30
2022-11-29T05:57:31.542Z,6.31
2022-11-29T06:00:01.971Z,6.35
2022-11-29T06:03:06.339Z,6.75
2022-11-29T06:05:42.616Z,6.63
2022-11-29T06:08:47.257Z,6.52
2022-11-29T06:11:25.682Z,6.55
2022-11-29T06:14:43.352Z,6.60
2022-11-29T06:17:38.633Z,6.50
2022-11-29T06:20:36.075Z,6.57
2022-11-29T06:23:18.146Z,6.14
2022-11-29T06:26:25.217Z,6.44
2022-11-29T06:29:44.956Z,6.74
2022-11-29T06:32:55.492Z,6.30
2022-11-29T06:35:45.874Z,6.40
2022-11-29T06:38:29.790Z,6.50
2022-11-29T06:41:02.071Z,6.60
2022-11-29T06:43:30.639Z,6.32
2022-11-29T06:46:14.930Z,6.75
2022-11-29T06:49:09.374Z,6.69
2022-11-29T06:52:00.506Z,6.69
2022-11-29T06:54:54.050Z,7.04
2022-11-29T06:58:08.210Z,6.82
2022-11-29T07:00:52.099Z,6.96
2022-11-29T07:03:46.788Z,6.82
2022-11-29T07:06:24.399Z,7.25
2022-11-29T07:09:00.219Z,7.15
2022-11-29T07:11:28.406Z,7.43
2022-11-29T07:13:58.098Z,7.64
2022-11-29T07:16:37.185Z,7.71
2022-11-29T07:19:32.943Z,7.67
2022-11-29T07:22:30.960Z,7.55
2022-11-29T07:25:21.010Z,7.41
2022-11-29T07:27:52.640Z,7.24
2022-11-29T07:30:43.635Z,7.39
2022-11-29T07:33:28.871Z,7.47
2022-11-29T07:36:06.833Z,7.30
2022-11-29T07:38:58.832Z,7.29
2022-11-29T07:41:44.389Z,7.44
2022-11-29T07:44:46.862Z,7.28
2022-11-29T07:47:14.148Z,7.27
2022-11-29T07:49:45.699Z,7.36
2022-11-29T07:52:15.672Z,7.54
2022-11-29T07:54:45.783Z,7.58
2022-11-29T07:57:15.588Z,7.49
2022-11-29T07:59:42.590Z,7.30
2022-11-29T08:02:12.115Z,7.10
2022-11-29T08:04:46.010Z,7.43
2022-11-29T08:07:13.214Z,7.56
2022-11-29T08:09:40.279Z,7.54
2022-11-29T08:12:07.450Z,7.45
2022-11-29T08:14:34.528Z,7.36
2022-11-29T08:17:04.018Z,7.36
2022-11-29T08:19:33.308Z,7.36
2022-11-29T08:22:02.666Z,7.49
2022-11-29T08:24:29.888Z,7.52
2022-11-29T08:26:59.375Z,7.45
2022-11-29T08:29:26.477Z,7.38
2022-11-29T08:31:56.219Z,7.44
2022-11-29T08:34:24.987Z,7.54
2022-11-29T08:36:57.565Z,7.32
2022-11-29T08:39:24.785Z,7.56
2022-11-29T08:41:52.031Z,7.48
2022-11-29T08:44:19.159Z,7.21
2022-11-29T08:47:04.848Z,7.11
2022-11-29T08:49:33.420Z,7.23
2022-11-29T08:52:18.970Z,7.43
2022-11-29T08:54:48.430Z,7.68
2022-11-29T08:57:39.325Z,7.31
2022-11-29T09:00:07.958Z,7.36
2022-11-29T09:02:36.731Z,7.28
2022-11-29T09:05:05.763Z,7.47
2022-11-29T09:07:33.500Z,7.24
2022-11-29T09:10:05.103Z,7.17
2022-11-29T09:12:41.437Z,7.27
2022-11-29T09:15:11.999Z,7.08
2022-11-29T09:17:41.496Z,7.13
2022-11-29T09:20:09.223Z,7.12
2022-11-29T09:22:40.561Z,7.37
2022-11-29T09:25:10.270Z,6.91
2022-11-29T09:27:37.314Z,6.87
2022-11-29T09:30:05.192Z,6.98
2022-11-29T09:32:32.428Z,7.10
2022-11-29T09:35:01.825Z,6.95
2022-11-29T09:37:31.270Z,7.10
2022-11-29T09:39:58.316Z,7.14
2022-11-29T09:42:56.662Z,7.59
2022-11-29T09:45:42.578Z,7.70
2022-11-29T09:48:22.886Z,7.64
2022-11-29T09:51:13.919Z,7.31
2022-11-29T09:54:06.357Z,7.41
2022-11-29T09:56:42.569Z,7.39
2022-11-29T09:59:18.835Z,7.60
2022-11-29T10:01:53.789Z,7.78
2022-11-29T10:04:29.751Z,7.92
2022-11-29T10:07:14.206Z,8.29
2022-11-29T10:09:52.306Z,8.59
2022-11-29T10:13:12.527Z,8.63
2022-11-29T10:15:44.139Z,8.66
2022-11-29T10:18:38.582Z,8.58
2022-11-29T10:21:21.727Z,8.79
2022-11-29T10:23:57.870Z,8.69
2022-11-29T10:26:33.586Z,8.59
2022-11-29T10:29:04.668Z,8.85
2022-11-29T10:31:43.369Z,8.93
2022-11-29T10:34:23.060Z,8.82
2022-11-29T10:36:59.725Z,8.84
2022-11-29T10:39:59.622Z,9.01
2022-11-29T10:42:47.706Z,8.73
2022-11-29T10:45:35.553Z,8.58
2022-11-29T10:48:04.272Z,8.38
2022-11-29T10:50:36.970Z,8.60
2022-11-29T10:53:26.611Z,8.61
2022-11-29T10:56:00.848Z,8.72
2022-11-29T10:58:32.594Z,8.87
2022-11-29T11:01:02.468Z,9.07
2022-11-29T11:03:53.140Z,9.16
2022-11-29T11:06:44.702Z,9.04
2022-11-29T11:09:22.811Z,8.82
2022-11-29T11:11:59.912Z,9.17
2022-11-29T11:14:36.359Z,9.28
2022-11-29T11:17:32.671Z,9.30
2022-11-29T11:20:06.749Z,9.31
2022-11-29T11:22:36.547Z,9.28
2022-11-29T11:25:31.739Z,9.17
2022-11-29T11:28:22.282Z,9.20
2022-11-29T11:31:04.998Z,9.00
2022-11-29T11:33:37.785Z,9.17
2022-11-29T11:36:26.136Z,9.52
2022-11-29T11:39:09.348Z,9.64
2022-11-29T11:42:01.860Z,9.41
2022-11-29T11:44:48.661Z,9.39
2022-11-29T11:47:24.539Z,9.04
2022-11-29T11:50:02.187Z,9.06
2022-11-29T11:52:53.171Z,8.63
2022-11-29T11:55:30.367Z,8.59
2022-11-29T11:58:16.104Z,8.41
2022-11-29T12:01:03.980Z,8.48
2022-11-29T12:04:08.585Z,8.42
2022-11-29T12:06:58.916Z,8.57
2022-11-29T12:09:42.543Z,8.36
2022-11-29T12:12:24.323Z,8.71
2022-11-29T12:15:03.081Z,8.94
2022-11-29T12:18:08.549Z,8.83
2022-11-29T12:21:00.757Z,8.87
2022-11-29T12:23:30.547Z,8.61
2022-11-29T12:26:03.586Z,8.63
2022-11-29T12:28:39.381Z,8.57
2022-11-29T12:31:41.491Z,8.64
2022-11-29T12:34:46.063Z,8.68
2022-11-29T12:37:33.102Z,8.57
2022-11-29T12:40:11.792Z,8.31
2022-11-29T12:43:00.298Z,8.30
2022-11-29T12:46:09.035Z,8.47
2022-11-29T12:48:50.952Z,8.67
2022-11-29T12:51:51.835Z,8.43
2022-11-29T12:54:45.336Z,8.52
2022-11-29T12:57:58.246Z,8.64
2022-11-29T13:00:35.210Z,8.50
2022-11-29T13:03:55.733Z,8.13
2022-11-29T13:06:50.295Z,8.00
2022-11-29T13:09:46.196Z,8.02
2022-11-29T13:12:42.064Z,8.34
2022-11-29T13:15:22.987Z,8.38
2022-11-29T13:18:23.293Z,8.29
2022-11-29T13:21:28.144Z,8.18
2022-11-29T13:24:15.697Z,8.50
2022-11-29T13:26:48.070Z,8.72
2022-11-29T13:29:17.753Z,8.52
2022-11-29T13:31:47.322Z,8.71
2022-11-29T13:34:29.068Z,8.21
2022-11-29T13:37:20.200Z,8.23
2022-11-29T13:40:14.105Z,8.23
2022-11-29T13:43:17.733Z,8.00
2022-11-29T13:46:01.650Z,8.06
2022-11-29T13:48:30.996Z,7.87
2022-11-29T13:50:58.614Z,7.90
2022-11-29T13:53:48.449Z,7.87
2022-11-29T13:56:32.936Z,7.94
2022-11-29T13:59:01.217Z,8.28
2022-11-29T14:01:28.978Z,8.28
2022-11-29T14:04:14.675Z,8.32
2022-11-29T14:06:41.988Z,8.20
2022-11-29T14:09:58.460Z,8.07
2022-11-29T14:13:05.969Z,7.73
2022-11-29T14:15:33.324Z,7.91
2022-11-29T14:18:08.605Z,8.06
2022-11-29T14:20:53.383Z,8.11
2022-11-29T14:23:42.985Z,8.12
2022-11-29T14:26:09.870Z,8.05
2022-11-29T14:28:39.888Z,8.10
2022-11-29T14:31:09.531Z,7.80
2022-11-29T14:34:03.538Z,7.68
2022-11-29T14:36:54.079Z,7.92
2022-11-29T14:39:41.295Z,8.01
2022-11-29T14:42:19.506Z,7.93
2022-11-29T14:44:54.582Z,7.78
2022-11-29T14:47:31.927Z,8.09
2022-11-29T14:50:07.585Z,8.08
2022-11-29T14:52:51.019Z,8.07
2022-11-29T14:55:17.889Z,7.98
2022-11-29T14:57:50.266Z,7.94
2022-11-29T15:00:21.519Z,7.71
2022-11-29T15:02:57.930Z,8.01
2022-11-29T15:05:46.801Z,8.10
2022-11-29T15:08:44.363Z,7.98
2022-11-29T15:11:33.090Z,8.02
2022-11-29T15:14:12.547Z,8.20
2022-11-29T15:16:58.814Z,7.95
2022-11-29T15:20:11.209Z,7.94
2022-11-29T15:22:53.640Z,7.78
2022-11-29T15:25:31.363Z,7.84
2022-11-29T15:28:03.134Z,7.97
2022-11-29T15:30:34.973Z,7.72
2022-11-29T15:33:05.943Z,7.66
2022-11-29T15:35:36.928Z,7.68
2022-11-29T15:38:06.045Z,7.86
2022-11-29T15:40:37.159Z,8.06
2022-11-29T15:43:23.492Z,7.96
2022-11-29T15:45:55.749Z,7.78
2022-11-29T15:48:27.931Z,7.61
2022-11-29T15:51:03.872Z,7.68
2022-11-29T15:53:48.278Z,7.90
2022-11-29T15:56:55.972Z,8.19
2022-11-29T15:59:48.227Z,8.07
2022-11-29T16:02:31.689Z,7.93
2022-11-29T16:05:27.531Z,8.04
2022-11-29T16:07:59.915Z,8.20
2022-11-29T16:10:43.448Z,8.19
2022-11-29T16:14:01.215Z,8.45
2022-11-29T16:16:32.835Z,8.44
2022-11-29T16:19:29.965Z,8.07
2022-11-29T16:22:24.090Z,8.03
2022-11-29T16:25:03.862Z,7.75
2022-11-29T16:27:37.271Z,7.81
2022-11-29T16:30:08.388Z,7.53
2022-11-29T16:32:41.708Z,7.98
2022-11-29T16:35:29.740Z,8.28
2022-11-29T16:38:00.546Z,8.07
2022-11-29T16:40:34.496Z,8.09
2022-11-29T16:43:06.485Z,8.13
2022-11-29T16:45:41.515Z,8.07
2022-11-29T16:48:30.483Z,7.83
2022-11-29T16:51:13.421Z,7.69
2022-11-29T16:53:49.819Z,7.56
2022-11-29T16:56:28.284Z,7.49
2022-11-29T16:59:20.560Z,7.56
2022-11-29T17:01:52.541Z,7.45
2022-11-29T17:04:23.492Z,7.64
2022-11-29T17:06:57.784Z,7.82
2022-11-29T17:09:31.699Z,7.71
2022-11-29T17:12:02.898Z,7.83
2022-11-29T17:14:31.524Z,7.79
2022-11-29T17:17:01.386Z,7.86
2022-11-29T17:19:31.957Z,7.80
2022-11-29T17:22:04.891Z,7.44
2022-11-29T17:24:37.066Z,7.37
2022-11-29T17:27:04.608Z,7.61
2022-11-29T17:29:31.702Z,7.76
2022-11-29T17:31:58.839Z,7.81
2022-11-29T17:34:25.837Z,7.95
2022-11-29T17:36:55.106Z,7.94
2022-11-29T17:39:22.633Z,7.77
2022-11-29T17:42:10.983Z,7.74
2022-11-29T17:45:17.630Z,7.89
2022-11-29T17:48:13.030Z,7.99
2022-11-29T17:50:51.411Z,8.23
2022-11-29T17:53:51.868Z,7.94
2022-11-29T17:56:32.182Z,7.54
2022-11-29T17:59:32.958Z,7.55
2022-11-29T18:02:37.564Z,7.75
2022-11-29T18:05:36.519Z,7.79
2022-11-29T18:08:15.773Z,7.71
2022-11-29T18:11:44.913Z,7.69
2022-11-29T18:14:50.895Z,7.39
2022-11-29T18:17:53.798Z,7.50
2022-11-29T18:20:51.705Z,7.47
2022-11-29T18:24:01.626Z,7.52
2022-11-29T18:27:08.166Z,7.56
2022-11-29T18:29:58.112Z,7.63
2022-11-29T18:32:53.807Z,7.32
2022-11-29T18:36:07.532Z,7.24
2022-11-29T18:38:46.166Z,7.13
2022-11-29T18:41:49.831Z,7.04
2022-11-29T18:47:53.009Z,7.05
2022-11-29T18:57:44.722Z,7.51
2022-11-29T19:03:25.982Z,7.62
2022-11-29T19:05:54.172Z,7.35
2022-11-29T19:08:23.599Z,7.62
2022-11-29T19:10:50.416Z,7.87
2022-11-29T19:13:19.412Z,8.03
2022-11-29T19:15:57.609Z,7.83
2022-11-29T19:18:26.845Z,8.04
2022-11-29T19:20:53.874Z,8.12
2022-11-29T19:23:21.679Z,8.25
2022-11-29T19:25:51.616Z,8.18
2022-11-29T19:28:21.075Z,8.09
2022-11-29T19:30:58.819Z,8.14
2022-11-29T19:33:26.085Z,7.90
2022-11-29T19:35:58.360Z,7.96
2022-11-29T19:38:29.999Z,8.18
2022-11-29T19:40:56.885Z,8.03
2022-11-29T19:43:23.860Z,8.07
2022-11-29T19:45:50.994Z,8.14
2022-11-29T19:48:18.017Z,7.99
2022-11-29T19:50:47.253Z,8.16
2022-11-29T19:53:18.540Z,8.30
2022-11-29T19:55:45.652Z,8.45
2022-11-29T19:58:14.976Z,8.44
2022-11-29T20:00:42.027Z,8.50
2022-11-29T20:03:13.859Z,8.48
2022-11-29T20:05:43.110Z,8.45
2022-11-29T20:08:18.431Z,8.41
2022-11-29T20:10:53.545Z,8.42
2022-11-29T20:13:21.160Z,8.48
2022-11-29T20:15:48.445Z,8.75
2022-11-29T20:18:15.544Z,8.78
2022-11-29T20:20:42.489Z,8.76
2022-11-29T20:23:11.898Z,8.76
2022-11-29T20:25:38.876Z,8.87
2022-11-29T20:28:08.456Z,8.97
2022-11-29T20:30:38.066Z,8.87
2022-11-29T20:33:07.570Z,8.68
2022-11-29T20:35:37.723Z,8.45
2022-11-29T20:38:41.782Z,8.60
2022-11-29T20:41:25.370Z,8.53
2022-11-29T20:44:02.503Z,8.34
2022-11-29T20:46:31.160Z,8.30
2022-11-29T20:49:06.329Z,8.13
2022-11-29T20:51:44.624Z,8.03
2022-11-29T20:54:15.034Z,8.19
2022-11-29T20:56:42.055Z,7.98
2022-11-29T20:59:09.113Z,8.08
2022-11-29T21:01:36.185Z,8.16
2022-11-29T21:04:03.370Z,8.34
2022-11-29T21:06:30.508Z,8.22
2022-11-29T21:08:57.609Z,8.19
2022-11-29T21:11:25.407Z,8.07
2022-11-29T21:13:52.695Z,8.23
2022-11-29T21:16:27.675Z,8.28
2022-11-29T21:19:00.715Z,8.22
2022-11-29T21:21:44.811Z,7.82
2022-11-29T21:24:46.668Z,7.94
2022-11-29T21:27:33.219Z,7.83
2022-11-29T21:30:06.175Z,7.54
2022-11-29T21:32:36.570Z,7.40
2022-11-29T21:35:03.758Z,7.77
2022-11-29T21:37:33.581Z,7.88
2022-11-29T21:40:00.811Z,7.71
2022-11-29T21:42:27.733Z,7.67
2022-11-29T21:44:54.753Z,7.67
2022-11-29T21:47:24.697Z,7.84
2022-11-29T21:49:52.848Z,7.61
2022-11-29T21:52:22.846Z,7.79
2022-11-29T21:54:50.438Z,7.81
2022-11-29T21:57:17.556Z,7.87
2022-11-29T21:59:44.562Z,7.41
2022-11-29T22:02:11.634Z,7.82
2022-11-29T22:04:38.828Z,7.77
2022-11-29T22:07:10.350Z,7.86
2022-11-29T22:09:37.266Z,8.06
2022-11-29T22:12:25.766Z,8.00
2022-11-29T22:14:51.313Z,7.75
2022-11-29T22:17:18.255Z,7.79
2022-11-29T22:19:47.727Z,7.96
2022-11-29T22:22:14.797Z,8.19
2022-11-29T22:24:41.676Z,8.22
2022-11-29T22:27:08.663Z,8.19
2022-11-29T22:29:37.854Z,8.13
2022-11-29T22:32:05.240Z,8.16
2022-11-29T22:34:34.695Z,8.22
2022-11-29T22:37:01.609Z,8.01
2022-11-29T22:39:31.090Z,8.10
2022-11-29T22:41:58.005Z,8.19
2022-11-29T22:44:30.223Z,7.96
2022-11-29T22:47:04.199Z,7.87
2022-11-29T22:49:33.200Z,7.58
2022-11-29T22:52:02.665Z,7.56
2022-11-29T22:54:29.701Z,7.61
2022-11-29T22:57:01.259Z,7.55
2022-11-29T22:59:30.203Z,7.56
2022-11-29T23:02:00.304Z,7.78
2022-11-29T23:04:27.315Z,7.96
2022-11-29T23:06:54.219Z,8.08
2022-11-29T23:09:23.866Z,8.19
2022-11-29T23:11:56.275Z,8.32
2022-11-29T23:14:25.902Z,8.26
2022-11-29T23:16:53.120Z,8.21
2022-11-29T23:19:20.450Z,8.06
2022-11-29T23:21:47.936Z,7.91
2022-11-29T23:24:15.950Z,7.96
2022-11-29T23:26:51.476Z,7.88
2022-11-29T23:29:20.044Z,7.90
2022-11-29T23:31:50.364Z,8.13
2022-11-29T23:34:17.613Z,8.10
2022-11-29T23:36:52.704Z,8.28
2022-11-29T23:39:20.589Z,8.39
2022-11-29T23:41:47.576Z,8.05
2022-11-29T23:44:16.752Z,8.05
2022-11-29T23:46:43.637Z,8.14
2022-11-29T23:49:10.659Z,8.24
2022-11-29T23:51:37.487Z,8.07
2022-11-29T23:54:09.506Z,8.12
2022-11-29T23:56:38.660Z,7.71
2022-11-29T23:59:05.737Z,7.75
